createdAt,value
2023-05-08T00:02:19.302Z,1.57
2023-05-08T00:04:46.374Z,1.70
2023-05-08T00:07:13.451Z,2.20
2023-05-08T00:09:40.702Z,1.90
2023-05-08T00:12:08.180Z,1.80
2023-05-08T00:14:35.290Z,2.20
2023-05-08T00:17:03.118Z,1.63
2023-05-08T00:19:30.315Z,1.70
2023-05-08T00:21:57.451Z,1.83
2023-05-08T00:24:24.719Z,1.83
2023-05-08T00:26:51.782Z,2.20
2023-05-08T00:29:19.018Z,1.67
2023-05-08T00:31:46.242Z,1.60
2023-05-08T00:34:13.604Z,2.00
2023-05-08T00:36:40.672Z,1.60
2023-05-08T00:39:08.161Z,1.80
2023-05-08T00:41:35.407Z,1.63
2023-05-08T00:44:02.694Z,1.67
2023-05-08T00:46:30.186Z,1.80
2023-05-08T00:48:57.605Z,1.70
2023-05-08T00:51:24.958Z,1.77
2023-05-08T00:53:52.003Z,1.63
2023-05-08T00:56:21.300Z,1.70
2023-05-08T00:58:48.712Z,2.20
2023-05-08T01:01:16.333Z,1.77
2023-05-08T01:03:45.083Z,1.90
2023-05-08T01:06:12.567Z,1.83
2023-05-08T01:08:39.817Z,1.83
2023-05-08T01:11:25.259Z,1.83
2023-05-08T01:14:19.417Z,1.70
2023-05-08T01:17:25.505Z,2.03
2023-05-08T01:20:13.205Z,1.83
2023-05-08T01:22:58.466Z,1.73
2023-05-08T01:25:34.376Z,1.70
2023-05-08T01:28:01.733Z,1.80
2023-05-08T01:30:56.655Z,1.77
2023-05-08T01:33:30.841Z,2.00
2023-05-08T01:36:06.061Z,1.80
2023-05-08T01:38:49.414Z,1.93
2023-05-08T01:41:24.302Z,1.87
2023-05-08T01:43:57.686Z,2.10
2023-05-08T01:46:27.833Z,1.57
2023-05-08T01:49:08.787Z,2.37
2023-05-08T01:51:46.155Z,2.13
2023-05-08T01:54:20.258Z,1.50
2023-05-08T01:56:48.907Z,1.80
2023-05-08T01:59:20.980Z,1.93
2023-05-08T02:01:51.481Z,1.70
2023-05-08T02:04:20.864Z,1.53
2023-05-08T02:06:48.278Z,2.20
2023-05-08T02:09:16.732Z,1.50
2023-05-08T02:11:46.144Z,1.90
2023-05-08T02:14:20.085Z,1.33
2023-05-08T02:16:50.716Z,2.00
2023-05-08T02:19:20.717Z,1.90
2023-05-08T02:21:50.071Z,1.80
2023-05-08T02:24:17.929Z,2.00
2023-05-08T02:26:46.609Z,1.90
2023-05-08T02:29:14.645Z,1.73
2023-05-08T02:31:42.861Z,1.93
2023-05-08T02:34:11.520Z,2.10
2023-05-08T02:36:39.869Z,2.00
2023-05-08T02:39:11.123Z,1.80
2023-05-08T02:41:41.468Z,2.00
2023-05-08T02:44:09.594Z,1.93
2023-05-08T02:46:46.480Z,2.30
2023-05-08T02:49:26.542Z,1.77
2023-05-08T02:52:49.247Z,1.77
2023-05-08T02:55:53.530Z,1.77
2023-05-08T02:59:03.692Z,2.07
2023-05-08T03:02:06.062Z,1.87
2023-05-08T03:05:00.124Z,2.30
2023-05-08T03:07:49.579Z,1.80
2023-05-08T03:10:41.741Z,2.07
2023-05-08T03:13:32.331Z,1.97
2023-05-08T03:16:22.445Z,1.90
2023-05-08T03:19:42.197Z,2.10
2023-05-08T03:22:31.419Z,2.00
2023-05-08T03:25:22.165Z,1.97
2023-05-08T03:28:11.904Z,2.40
2023-05-08T03:31:01.659Z,2.23
2023-05-08T03:33:49.640Z,2.20
2023-05-08T03:36:37.751Z,2.13
2023-05-08T03:39:25.530Z,2.20
2023-05-08T03:42:13.010Z,2.00
2023-05-08T03:45:00.171Z,2.60
2023-05-08T03:47:47.901Z,2.10
2023-05-08T03:50:36.027Z,2.27
2023-05-08T03:53:24.230Z,2.10
2023-05-08T03:56:11.446Z,2.17
2023-05-08T03:59:07.475Z,2.03
2023-05-08T04:02:02.068Z,2.33
2023-05-08T04:05:04.227Z,2.23
2023-05-08T04:07:56.251Z,2.17
2023-05-08T04:11:11.257Z,1.90
2023-05-08T04:14:06.027Z,2.10
2023-05-08T04:16:59.761Z,2.03
2023-05-08T04:19:50.219Z,1.90
2023-05-08T04:22:40.885Z,3.40
2023-05-08T04:25:30.949Z,2.93
2023-05-08T04:28:18.978Z,3.10
2023-05-08T04:31:06.539Z,2.40
2023-05-08T04:33:55.866Z,2.60
2023-05-08T04:36:43.090Z,2.73
2023-05-08T04:39:30.199Z,2.60
2023-05-08T04:42:17.271Z,3.47
2023-05-08T04:45:04.426Z,2.53
2023-05-08T04:47:52.263Z,2.33
2023-05-08T04:50:39.713Z,2.53
2023-05-08T04:53:27.162Z,2.27
2023-05-08T04:56:14.185Z,2.47
2023-05-08T04:59:01.410Z,4.03
2023-05-08T05:01:48.540Z,2.77
2023-05-08T05:04:35.705Z,3.97
2023-05-08T05:07:24.529Z,2.87
2023-05-08T05:10:11.644Z,1.77
2023-05-08T05:12:59.049Z,1.80
2023-05-08T05:15:46.663Z,1.97
2023-05-08T05:18:34.958Z,2.03
2023-05-08T05:21:21.984Z,1.77
2023-05-08T05:24:09.308Z,1.30
2023-05-08T05:26:56.553Z,1.50
2023-05-08T05:29:43.651Z,1.20
2023-05-08T05:32:30.673Z,1.20
2023-05-08T05:35:17.940Z,1.17
2023-05-08T05:38:05.126Z,1.10
2023-05-08T05:40:52.479Z,1.07
2023-05-08T05:43:39.995Z,1.50
2023-05-08T05:46:28.968Z,1.10
2023-05-08T05:49:16.298Z,1.03
2023-05-08T05:52:03.580Z,1.10
2023-05-08T05:54:50.758Z,1.00
2023-05-08T05:57:37.814Z,1.47
2023-05-08T06:00:25.978Z,1.20
2023-05-08T06:03:16.098Z,1.17
2023-05-08T06:06:03.912Z,1.60
2023-05-08T06:08:51.290Z,1.33
2023-05-08T06:11:38.593Z,1.07
2023-05-08T06:14:25.885Z,1.20
2023-05-08T06:17:13.378Z,1.23
2023-05-08T06:20:00.537Z,1.23
2023-05-08T06:22:49.031Z,1.10
2023-05-08T06:25:36.242Z,1.50
2023-05-08T06:28:23.275Z,1.20
2023-05-08T06:31:10.387Z,1.20
2023-05-08T06:33:57.309Z,0.97
2023-05-08T06:36:44.338Z,1.37
2023-05-08T06:39:31.230Z,1.00
2023-05-08T06:42:18.738Z,1.17
2023-05-08T06:45:06.665Z,1.07
2023-05-08T06:47:54.014Z,1.30
2023-05-08T06:50:41.093Z,1.07
2023-05-08T06:53:28.302Z,1.30
2023-05-08T06:56:15.551Z,1.70
2023-05-08T06:59:08.267Z,1.40
2023-05-08T07:01:55.678Z,1.40
2023-05-08T07:04:43.116Z,1.50
2023-05-08T07:07:30.053Z,1.50
2023-05-08T07:10:17.225Z,1.37
2023-05-08T07:13:04.230Z,1.10
2023-05-08T07:15:55.164Z,1.23
2023-05-08T07:18:42.535Z,1.13
2023-05-08T07:21:30.825Z,1.03
2023-05-08T07:24:17.817Z,1.20
2023-05-08T07:27:05.312Z,1.20
2023-05-08T07:29:52.343Z,1.33
2023-05-08T07:32:39.601Z,1.20
2023-05-08T07:35:28.078Z,1.30
2023-05-08T07:38:15.399Z,1.30
2023-05-08T07:41:02.511Z,1.30
2023-05-08T07:43:49.841Z,1.20
2023-05-08T07:46:40.756Z,1.10
2023-05-08T07:49:27.807Z,1.30
2023-05-08T07:52:14.805Z,1.43
2023-05-08T07:55:01.819Z,1.50
2023-05-08T07:57:56.469Z,1.13
2023-05-08T08:00:43.706Z,1.37
2023-05-08T08:03:31.189Z,1.57
2023-05-08T08:06:18.690Z,1.33
2023-05-08T08:09:06.095Z,1.60
2023-05-08T08:11:53.209Z,1.30
2023-05-08T08:14:40.242Z,1.53
2023-05-08T08:17:28.932Z,1.33
2023-05-08T08:20:16.584Z,1.53
2023-05-08T08:23:03.766Z,1.30
2023-05-08T08:25:50.885Z,1.40
2023-05-08T08:28:37.858Z,1.13
2023-05-08T08:31:25.026Z,1.10
2023-05-08T08:34:12.309Z,1.30
2023-05-08T08:36:59.879Z,0.90
2023-05-08T08:39:46.977Z,1.10
2023-05-08T08:42:34.201Z,1.30
2023-05-08T08:45:21.971Z,1.10
2023-05-08T08:48:12.540Z,1.17
2023-05-08T08:51:03.237Z,1.13
2023-05-08T08:53:56.427Z,1.17
2023-05-08T08:56:43.905Z,1.00
2023-05-08T08:59:33.182Z,1.27
2023-05-08T09:02:26.608Z,1.47
2023-05-08T09:05:14.264Z,1.10
2023-05-08T09:08:01.574Z,1.07
2023-05-08T09:10:48.703Z,1.20
2023-05-08T09:13:36.031Z,1.10
2023-05-08T09:16:23.391Z,1.10
2023-05-08T09:19:10.767Z,1.60
2023-05-08T09:21:58.073Z,1.20
2023-05-08T09:24:45.152Z,0.90
2023-05-08T09:27:41.168Z,1.37
2023-05-08T09:30:33.405Z,0.90
2023-05-08T09:33:21.720Z,1.03
2023-05-08T09:36:09.101Z,0.70
2023-05-08T09:39:00.491Z,0.80
2023-05-08T09:41:47.790Z,1.20
2023-05-08T09:44:34.892Z,1.00
2023-05-08T09:47:32.850Z,0.90
2023-05-08T09:50:30.417Z,0.97
2023-05-08T09:53:17.488Z,0.70
2023-05-08T09:56:08.035Z,0.80
2023-05-08T09:59:08.553Z,1.00
2023-05-08T10:01:56.658Z,1.10
2023-05-08T10:04:57.511Z,1.17
2023-05-08T10:07:55.186Z,1.17
2023-05-08T10:10:50.058Z,1.10
2023-05-08T10:13:37.107Z,1.20
2023-05-08T10:16:25.098Z,0.93
2023-05-08T10:19:19.769Z,1.20
2023-05-08T10:22:14.654Z,1.20
2023-05-08T10:25:04.395Z,0.97
2023-05-08T10:28:01.452Z,1.40
2023-05-08T10:30:50.953Z,1.20
2023-05-08T10:33:41.375Z,0.93
2023-05-08T10:36:30.974Z,1.00
2023-05-08T10:39:19.116Z,1.00
2023-05-08T10:42:07.148Z,1.50
2023-05-08T10:44:54.626Z,1.10
2023-05-08T10:48:01.863Z,1.10
2023-05-08T10:50:57.902Z,1.20
2023-05-08T10:54:04.098Z,1.77
2023-05-08T10:56:51.138Z,1.40
2023-05-08T10:59:42.412Z,1.23
2023-05-08T11:02:29.566Z,1.00
2023-05-08T11:05:34.771Z,1.07
2023-05-08T11:08:21.867Z,1.33
2023-05-08T11:11:35.920Z,1.00
2023-05-08T11:14:29.593Z,1.17
2023-05-08T11:17:16.596Z,1.20
2023-05-08T11:20:16.769Z,1.17
2023-05-08T11:23:07.837Z,1.40
2023-05-08T11:26:05.102Z,1.30
2023-05-08T11:28:57.046Z,1.07
2023-05-08T11:31:44.588Z,1.40
2023-05-08T11:34:56.479Z,1.13
2023-05-08T11:37:44.594Z,1.30
2023-05-08T11:41:09.189Z,0.90
2023-05-08T11:43:58.784Z,1.17
2023-05-08T11:46:58.197Z,1.37
2023-05-08T11:49:46.921Z,0.90
2023-05-08T11:52:38.701Z,1.23
2023-05-08T11:55:31.177Z,1.17
2023-05-08T11:58:18.070Z,1.10
2023-05-08T12:01:07.051Z,1.17
2023-05-08T12:03:54.187Z,1.47
2023-05-08T12:06:41.484Z,1.60
2023-05-08T12:09:34.050Z,1.30
2023-05-08T12:12:21.160Z,1.30
2023-05-08T12:15:11.156Z,1.27
2023-05-08T12:17:58.721Z,1.40
2023-05-08T12:20:45.662Z,1.20
2023-05-08T12:23:32.990Z,1.00
2023-05-08T12:26:20.953Z,1.37
2023-05-08T12:29:15.050Z,1.17
2023-05-08T12:32:02.016Z,1.30
2023-05-08T12:34:49.310Z,1.03
2023-05-08T12:37:56.835Z,1.00
2023-05-08T12:40:46.833Z,1.00
2023-05-08T12:43:33.823Z,1.03
2023-05-08T12:46:21.792Z,1.00
2023-05-08T12:49:08.680Z,1.00
2023-05-08T12:51:55.793Z,1.10
2023-05-08T12:54:52.714Z,1.30
2023-05-08T12:57:39.898Z,1.23
2023-05-08T13:00:27.485Z,1.20
2023-05-08T13:03:15.741Z,1.30
2023-05-08T13:06:04.549Z,1.00
2023-05-08T13:08:56.740Z,1.03
2023-05-08T13:11:51.010Z,1.33
2023-05-08T13:14:38.078Z,1.50
2023-05-08T13:17:25.114Z,1.10
2023-05-08T13:20:12.364Z,1.13
2023-05-08T13:22:59.393Z,1.00
2023-05-08T13:25:46.753Z,0.90
2023-05-08T13:28:33.679Z,0.90
2023-05-08T13:31:20.973Z,1.37
2023-05-08T13:34:07.908Z,1.40
2023-05-08T13:36:55.082Z,1.00
2023-05-08T13:39:42.024Z,1.13
2023-05-08T13:42:29.194Z,1.37
2023-05-08T13:45:16.498Z,1.20
2023-05-08T13:48:04.239Z,1.10
2023-05-08T13:50:51.318Z,1.10
2023-05-08T13:53:38.362Z,1.40
2023-05-08T13:56:25.608Z,1.17
2023-05-08T13:59:12.958Z,1.13
2023-05-08T14:01:59.871Z,1.30
2023-05-08T14:04:47.172Z,0.87
2023-05-08T14:07:34.133Z,1.00
2023-05-08T14:10:21.237Z,1.30
2023-05-08T14:13:08.189Z,1.17
2023-05-08T14:15:55.476Z,1.30
2023-05-08T14:18:42.610Z,1.07
2023-05-08T14:21:29.850Z,1.00
2023-05-08T14:24:16.933Z,1.07
2023-05-08T14:27:04.412Z,0.90
2023-05-08T14:29:52.772Z,0.90
2023-05-08T14:32:40.225Z,0.90
2023-05-08T14:35:29.112Z,0.83
2023-05-08T14:38:16.112Z,0.97
2023-05-08T14:41:04.687Z,1.13
2023-05-08T14:43:52.076Z,1.30
2023-05-08T14:46:38.973Z,0.90
2023-05-08T14:49:36.727Z,1.30
2023-05-08T14:52:25.695Z,1.13
2023-05-08T14:55:13.137Z,1.37
2023-05-08T14:58:00.369Z,1.60
2023-05-08T15:00:47.665Z,1.23
2023-05-08T15:03:34.791Z,1.27
2023-05-08T15:06:22.192Z,1.30
2023-05-08T15:09:09.801Z,1.47
2023-05-08T15:11:57.510Z,1.43
2023-05-08T15:14:44.572Z,1.50
2023-05-08T15:17:31.705Z,1.30
2023-05-08T15:20:18.727Z,1.30
2023-05-08T15:23:05.731Z,1.50
2023-05-08T15:25:53.121Z,1.20
2023-05-08T15:28:40.381Z,1.30
2023-05-08T15:31:27.471Z,1.30
2023-05-08T15:34:15.044Z,1.40
2023-05-08T15:37:02.012Z,1.83
2023-05-08T15:39:49.220Z,1.20
2023-05-08T15:42:36.197Z,1.20
2023-05-08T15:45:23.435Z,1.20
2023-05-08T15:48:10.506Z,1.30
2023-05-08T15:50:57.702Z,1.40
2023-05-08T15:53:44.572Z,1.40
2023-05-08T15:56:31.829Z,1.23
2023-05-08T15:59:18.892Z,1.40
2023-05-08T16:02:05.940Z,1.33
2023-05-08T16:04:53.067Z,1.57
2023-05-08T16:07:40.653Z,1.33
2023-05-08T16:10:28.498Z,1.50
2023-05-08T16:13:15.527Z,1.30
2023-05-08T16:16:02.536Z,1.00
2023-05-08T16:18:49.918Z,1.30
2023-05-08T16:21:36.929Z,1.30
2023-05-08T16:24:24.291Z,1.23
2023-05-08T16:27:11.723Z,1.20
2023-05-08T16:29:58.830Z,1.03
2023-05-08T16:32:45.770Z,1.40
2023-05-08T16:35:33.276Z,1.30
2023-05-08T16:38:20.268Z,1.20
2023-05-08T16:41:07.426Z,1.27
2023-05-08T16:43:54.403Z,1.23
2023-05-08T16:46:41.406Z,1.20
2023-05-08T16:49:28.371Z,1.30
2023-05-08T16:52:15.394Z,1.30
2023-05-08T16:55:02.306Z,1.17
2023-05-08T16:57:49.531Z,1.03
2023-05-08T17:00:36.977Z,1.30
2023-05-08T17:03:24.633Z,1.30
2023-05-08T17:06:11.726Z,1.30
2023-05-08T17:08:58.760Z,1.53
2023-05-08T17:11:45.767Z,1.50
2023-05-08T17:14:32.827Z,1.50
2023-05-08T17:17:19.849Z,1.50
2023-05-08T17:20:06.731Z,1.37
2023-05-08T17:22:54.630Z,1.47
2023-05-08T17:25:43.004Z,1.60
2023-05-08T17:28:29.886Z,1.60
2023-05-08T17:31:17.833Z,1.50
2023-05-08T17:34:05.043Z,1.77
2023-05-08T17:36:54.428Z,1.60
2023-05-08T17:39:42.663Z,1.37
2023-05-08T17:42:29.728Z,1.40
2023-05-08T17:45:17.422Z,1.63
2023-05-08T17:48:04.741Z,1.63
2023-05-08T17:50:51.828Z,1.60
2023-05-08T17:53:39.214Z,1.67
2023-05-08T17:56:26.537Z,1.83
2023-05-08T17:59:13.723Z,1.87
2023-05-08T18:02:00.730Z,2.00
2023-05-08T18:04:47.747Z,1.80
2023-05-08T18:07:35.038Z,1.70
2023-05-08T18:10:22.042Z,2.17
2023-05-08T18:13:09.047Z,2.37
2023-05-08T18:15:59.516Z,2.10
2023-05-08T18:18:47.626Z,1.97
2023-05-08T18:21:35.095Z,1.83
2023-05-08T18:24:22.460Z,1.80
2023-05-08T18:27:09.429Z,2.07
2023-05-08T18:29:56.410Z,1.90
2023-05-08T18:32:43.680Z,2.10
2023-05-08T18:35:30.718Z,1.90
2023-05-08T18:38:17.884Z,1.80
2023-05-08T18:41:06.199Z,2.10
2023-05-08T18:43:53.756Z,1.83
2023-05-08T18:46:40.985Z,2.00
2023-05-08T18:49:28.185Z,2.00
2023-05-08T18:52:15.333Z,1.90
2023-05-08T18:55:02.496Z,1.83
2023-05-08T18:57:49.630Z,2.00
2023-05-08T19:00:37.171Z,1.70
2023-05-08T19:03:24.506Z,1.97
2023-05-08T19:06:11.708Z,2.13
2023-05-08T19:08:59.195Z,2.30
2023-05-08T19:11:46.205Z,1.90
2023-05-08T19:14:33.176Z,1.77
2023-05-08T19:17:20.175Z,2.07
2023-05-08T19:20:07.391Z,2.13
2023-05-08T19:22:54.489Z,1.90
2023-05-08T19:25:41.656Z,1.93
2023-05-08T19:28:28.750Z,1.90
2023-05-08T19:31:15.829Z,2.20
2023-05-08T19:34:05.758Z,2.00
2023-05-08T19:36:52.756Z,1.93
2023-05-08T19:39:39.717Z,1.90
2023-05-08T19:42:26.899Z,2.00
2023-05-08T19:45:14.074Z,2.07
2023-05-08T19:48:01.310Z,2.20
2023-05-08T19:50:48.428Z,2.20
2023-05-08T19:53:35.843Z,1.93
2023-05-08T19:56:22.956Z,2.00
2023-05-08T19:59:10.053Z,1.80
2023-05-08T20:01:57.156Z,2.20
2023-05-08T20:05:04.266Z,2.70
2023-05-08T20:07:51.782Z,2.07
2023-05-08T20:10:38.916Z,1.90
2023-05-08T20:13:26.199Z,1.90
2023-05-08T20:16:14.001Z,1.80
2023-05-08T20:19:01.111Z,2.23
2023-05-08T20:21:48.241Z,1.90
2023-05-08T20:24:35.384Z,1.60
2023-05-08T20:27:22.837Z,1.70
2023-05-08T20:30:09.827Z,1.80
2023-05-08T20:32:56.942Z,1.77
2023-05-08T20:35:44.015Z,1.80
2023-05-08T20:38:31.380Z,2.30
2023-05-08T20:41:18.335Z,2.10
2023-05-08T20:44:05.318Z,2.30
2023-05-08T20:46:52.376Z,2.00
2023-05-08T20:49:39.593Z,1.90
2023-05-08T20:52:26.776Z,2.20
2023-05-08T20:55:14.146Z,2.00
2023-05-08T20:58:01.398Z,1.80
2023-05-08T21:00:48.582Z,1.97
2023-05-08T21:03:35.567Z,2.10
2023-05-08T21:06:22.764Z,1.80
2023-05-08T21:09:09.831Z,1.90
2023-05-08T21:11:57.033Z,2.37
2023-05-08T21:14:43.980Z,2.20
2023-05-08T21:17:31.174Z,2.00
2023-05-08T21:20:18.197Z,2.20
2023-05-08T21:23:05.214Z,2.13
2023-05-08T21:25:52.177Z,2.10
2023-05-08T21:28:39.389Z,1.90
2023-05-08T21:31:26.448Z,1.87
2023-05-08T21:34:13.712Z,2.60
2023-05-08T21:37:00.668Z,2.17
2023-05-08T21:39:47.963Z,1.83
2023-05-08T21:42:34.841Z,1.93
2023-05-08T21:45:22.135Z,1.90
2023-05-08T21:48:09.091Z,2.10
2023-05-08T21:50:56.194Z,1.90
2023-05-08T21:53:43.196Z,2.00
2023-05-08T21:56:30.384Z,2.07
2023-05-08T21:58:57.408Z,2.00
2023-05-08T22:01:24.473Z,2.10
2023-05-08T22:03:51.734Z,2.07
2023-05-08T22:06:18.837Z,2.13
2023-05-08T22:08:46.090Z,2.30
2023-05-08T22:11:33.245Z,2.03
2023-05-08T22:14:20.289Z,1.90
2023-05-08T22:17:07.278Z,2.17
2023-05-08T22:19:54.338Z,2.00
2023-05-08T22:22:41.310Z,1.90
2023-05-08T22:25:28.979Z,1.77
2023-05-08T22:28:16.102Z,2.30
2023-05-08T22:31:03.379Z,2.00
2023-05-08T22:33:50.539Z,1.70
2023-05-08T22:36:37.521Z,1.70
2023-05-08T22:39:28.721Z,2.60
2023-05-08T22:42:16.088Z,2.10
2023-05-08T22:45:03.789Z,2.07
2023-05-08T22:47:51.286Z,2.07
2023-05-08T22:50:38.489Z,1.60
2023-05-08T22:53:25.595Z,2.07
2023-05-08T22:56:12.874Z,2.00
2023-05-08T22:59:00.619Z,1.97
2023-05-08T23:01:47.790Z,1.90
2023-05-08T23:04:34.853Z,2.20
2023-05-08T23:07:22.473Z,2.03
2023-05-08T23:10:09.429Z,2.40
2023-05-08T23:12:56.643Z,2.00
2023-05-08T23:15:43.639Z,1.83
2023-05-08T23:18:30.784Z,2.10
2023-05-08T23:21:18.003Z,2.10
2023-05-08T23:24:05.089Z,2.03
2023-05-08T23:26:52.089Z,2.00
2023-05-08T23:29:39.191Z,1.83
2023-05-08T23:32:26.453Z,1.97
2023-05-08T23:35:13.954Z,2.40
2023-05-08T23:38:01.292Z,2.27
2023-05-08T23:40:48.803Z,1.87
2023-05-08T23:43:35.778Z,2.77
2023-05-08T23:46:22.969Z,2.27
2023-05-08T23:49:10.213Z,2.67
2023-05-08T23:51:57.260Z,2.23
2023-05-08T23:54:44.544Z,2.47
2023-05-08T23:57:31.640Z,3.07
